Time;durP1;ratioP1;P1;durP2;ratioP2;P2;SDS_P1;SDS_P2;PMS_P1;PMS_P2;Temp;Humidity;BMP_temperature;BMP_pressure;BME280_temperature;BME280_humidity;BME280_pressure;Samples;Min_cycle;Max_cycle;Signal;HPM_P1;HPM_P2
2023/06/24 00:01:16;;;;;;;10.38;6.53;;;;;;;15.10;100.00;102128.50;5008757;28;20184;-44
2023/06/24 00:03:46;;;;;;;7.25;5.72;;;;;;;15.25;100.00;102122.56;5017225;28;20274;-45
2023/06/24 00:06:18;;;;;;;7.43;5.70;;;;;;;15.08;100.00;102122.28;5009411;28;20188;-44
2023/06/24 00:08:47;;;;;;;9.30;6.45;;;;;;;15.14;100.00;102109.44;5019327;28;20184;-45
2023/06/24 00:11:13;;;;;;;7.15;5.13;;;;;;;15.10;100.00;102115.03;5018106;28;20289;-45
2023/06/24 00:13:40;;;;;;;7.07;5.28;;;;;;;15.14;100.00;102108.56;5006617;28;20283;-47
2023/06/24 00:16:08;;;;;;;7.43;5.90;;;;;;;15.06;100.00;102125.03;5020565;28;20270;-46
2023/06/24 00:18:35;;;;;;;5.70;4.85;;;;;;;15.17;100.00;102116.53;5008719;28;20622;-45
2023/06/24 00:21:02;;;;;;;7.00;6.00;;;;;;;15.07;100.00;102115.16;5016197;28;20616;-45
2023/06/24 00:23:28;;;;;;;6.72;5.55;;;;;;;15.08;100.00;102123.16;5013774;28;20197;-45
2023/06/24 00:25:54;;;;;;;6.47;5.75;;;;;;;15.01;100.00;102117.09;5021603;28;20221;-46
2023/06/24 00:28:21;;;;;;;5.65;5.03;;;;;;;15.05;100.00;102120.59;5019300;28;20321;-44
2023/06/24 00:30:47;;;;;;;6.85;5.25;;;;;;;14.98;100.00;102117.22;5016789;28;20789;-47
2023/06/24 00:33:13;;;;;;;8.32;6.28;;;;;;;15.04;100.00;102111.63;5004177;28;20981;-45
2023/06/24 00:35:42;;;;;;;7.20;5.53;;;;;;;15.05;100.00;102123.28;5015869;28;20188;-46
2023/06/24 00:38:08;;;;;;;6.20;5.55;;;;;;;14.94;100.00;102118.28;5017781;28;20217;-46
2023/06/24 00:40:35;;;;;;;7.60;6.40;;;;;;;14.86;100.00;102116.78;5016172;28;20177;-45
2023/06/24 00:43:01;;;;;;;8.98;6.10;;;;;;;14.71;100.00;102120.91;5017246;28;20356;-45
2023/06/24 00:45:29;;;;;;;8.48;6.13;;;;;;;14.72;100.00;102122.69;5018325;28;20673;-45
2023/06/24 00:47:55;;;;;;;9.27;6.68;;;;;;;14.59;100.00;102128.47;5018142;28;20706;-45
2023/06/24 00:50:21;;;;;;;7.78;6.43;;;;;;;14.59;100.00;102133.00;5016815;28;20266;-45
2023/06/24 00:52:48;;;;;;;8.25;6.72;;;;;;;14.57;100.00;102129.47;5017121;28;20203;-45
2023/06/24 00:55:15;;;;;;;6.93;5.82;;;;;;;14.56;100.00;102133.09;5019628;28;20195;-45
2023/06/24 00:57:45;;;;;;;9.23;6.00;;;;;;;14.51;100.00;102130.53;4997845;28;20569;-46
2023/06/24 01:00:15;;;;;;;8.15;5.97;;;;;;;14.54;100.00;102127.75;5000658;28;20229;-46
2023/06/24 01:02:42;;;;;;;8.82;6.80;;;;;;;14.51;100.00;102135.03;5016391;28;20181;-45
2023/06/24 01:05:11;;;;;;;8.65;6.40;;;;;;;14.37;100.00;102138.22;5007890;28;20590;-45
2023/06/24 01:07:41;;;;;;;8.73;7.03;;;;;;;14.41;100.00;102138.06;5015757;28;20196;-46
2023/06/24 01:10:08;;;;;;;8.48;7.68;;;;;;;14.05;100.00;102155.41;5018789;28;20261;-46
2023/06/24 01:12:38;;;;;;;9.93;7.40;;;;;;;14.11;100.00;102158.78;5018963;28;20196;-47
2023/06/24 01:15:06;;;;;;;8.57;7.75;;;;;;;14.02;100.00;102154.59;5012945;28;20192;-47
2023/06/24 01:17:38;;;;;;;11.68;7.63;;;;;;;14.06;100.00;102157.16;5018040;28;20554;-47
2023/06/24 01:20:12;;;;;;;10.40;7.68;;;;;;;13.97;100.00;102159.25;5016011;28;20819;-46
2023/06/24 01:22:46;;;;;;;14.02;8.35;;;;;;;13.85;100.00;102169.50;5007978;28;20192;-47
2023/06/24 01:25:43;;;;;;;8.32;7.53;;;;;;;13.89;100.00;102163.09;5017588;28;20562;-45
2023/06/24 01:28:24;;;;;;;11.52;8.48;;;;;;;13.93;100.00;102176.44;4997914;28;20184;-44
2023/06/24 01:31:02;;;;;;;9.55;7.63;;;;;;;14.00;100.00;102169.91;5009499;28;20187;-45
2023/06/24 01:33:41;;;;;;;12.43;9.00;;;;;;;13.95;100.00;102170.97;5012543;28;20270;-45
2023/06/24 01:36:11;;;;;;;10.20;9.10;;;;;;;13.96;100.00;102178.16;5014399;28;20554;-46
2023/06/24 01:39:17;;;;;;;9.73;8.73;;;;;;;14.00;100.00;102177.13;4993377;28;20218;-45
2023/06/24 01:42:00;;;;;;;8.77;7.93;;;;;;;14.00;100.00;102177.13;4954615;28;20241;-46
2023/06/24 01:44:28;;;;;;;9.30;8.30;;;;;;;13.99;100.00;102172.66;4995091;28;20270;-46
2023/06/24 01:46:57;;;;;;;10.98;8.35;;;;;;;13.88;100.00;102167.59;5012066;28;20204;-46
2023/06/24 01:49:26;;;;;;;10.68;7.97;;;;;;;13.90;100.00;102184.59;5014513;28;20235;-46
2023/06/24 01:51:52;;;;;;;10.23;7.75;;;;;;;13.85;100.00;102177.59;5017963;28;20764;-46
2023/06/24 01:54:22;;;;;;;9.68;7.85;;;;;;;13.80;100.00;102175.03;5020170;28;20232;-46
2023/06/24 01:56:49;;;;;;;9.88;8.60;;;;;;;13.89;100.00;102176.56;5006860;28;20188;-46
2023/06/24 01:59:18;;;;;;;10.98;8.00;;;;;;;14.02;100.00;102170.75;5002442;28;20721;-46
2023/06/24 02:01:45;;;;;;;11.63;8.05;;;;;;;13.98;100.00;102169.06;5006325;28;20885;-46
2023/06/24 02:04:11;;;;;;;8.38;7.43;;;;;;;13.98;100.00;102176.28;5007809;28;20204;-47
2023/06/24 02:06:39;;;;;;;12.02;8.00;;;;;;;13.88;100.00;102182.88;5015844;28;20188;-46
2023/06/24 02:09:06;;;;;;;8.52;7.63;;;;;;;13.91;100.00;102188.19;5007238;28;20188;-45
2023/06/24 02:11:34;;;;;;;8.45;7.05;;;;;;;13.86;100.00;102190.13;5005971;28;20201;-47
2023/06/24 02:14:03;;;;;;;13.60;8.07;;;;;;;13.87;100.00;102178.44;5005407;28;20223;-46
2023/06/24 02:16:29;;;;;;;7.80;7.00;;;;;;;13.87;100.00;102178.44;5008324;28;20554;-45
2023/06/24 02:18:56;;;;;;;8.02;7.25;;;;;;;13.88;100.00;102182.88;5018151;28;20184;-46
2023/06/24 02:21:24;;;;;;;8.57;7.47;;;;;;;13.84;100.00;102182.09;5017449;28;20177;-46
2023/06/24 02:23:51;;;;;;;8.45;7.57;;;;;;;13.87;100.00;102181.13;5018988;28;20620;-45
2023/06/24 02:26:17;;;;;;;10.82;8.02;;;;;;;13.81;100.00;102176.78;5009164;28;20176;-46
2023/06/24 02:28:46;;;;;;;7.60;6.97;;;;;;;13.81;100.00;102177.66;5028553;28;20645;-45
2023/06/24 02:31:12;;;;;;;10.85;7.97;;;;;;;13.63;100.00;102178.22;5015644;28;20214;-48
2023/06/24 02:33:38;;;;;;;10.23;8.43;;;;;;;13.44;100.00;102185.06;5009595;28;20207;-47
2023/06/24 02:36:04;;;;;;;11.27;8.48;;;;;;;13.52;100.00;102183.94;5017778;28;20188;-47
2023/06/24 02:38:30;;;;;;;13.27;8.90;;;;;;;13.58;100.00;102175.66;5025862;28;20578;-46
2023/06/24 02:40:56;;;;;;;9.32;8.43;;;;;;;13.56;100.00;102174.84;5008347;28;20173;-47
2023/06/24 02:43:22;;;;;;;8.85;7.30;;;;;;;13.69;100.00;102171.78;4999222;28;20232;-45
2023/06/24 02:45:50;;;;;;;9.18;7.70;;;;;;;13.67;100.00;102184.41;5011386;28;20574;-47
2023/06/24 02:48:18;;;;;;;11.77;8.57;;;;;;;13.41;100.00;102179.78;5005376;28;20188;-46
2023/06/24 02:50:45;;;;;;;10.27;8.45;;;;;;;13.59;100.00;102177.41;5024689;28;20199;-46
2023/06/24 02:53:15;;;;;;;11.32;8.55;;;;;;;13.49;100.00;102186.72;5011267;28;20208;-46
2023/06/24 02:55:42;;;;;;;8.90;7.82;;;;;;;13.49;100.00;102189.41;5020348;28;20188;-46
2023/06/24 02:58:09;;;;;;;8.95;7.97;;;;;;;13.47;100.00;102198.44;5009887;28;20612;-45
2023/06/24 03:00:36;;;;;;;9.35;7.18;;;;;;;13.53;100.00;102199.13;5024782;28;20188;-46
2023/06/24 03:03:08;;;;;;;10.45;8.40;;;;;;;13.50;100.00;102191.16;5027851;28;20196;-45
2023/06/24 03:05:37;;;;;;;8.43;7.50;;;;;;;13.59;100.00;102198.97;5023265;28;20180;-46
2023/06/24 03:08:04;;;;;;;10.70;8.32;;;;;;;13.44;100.00;102198.53;5015075;28;20194;-46
2023/06/24 03:10:31;;;;;;;10.20;8.52;;;;;;;13.30;100.00;102190.84;5017943;28;20183;-45
2023/06/24 03:12:57;;;;;;;10.52;8.65;;;;;;;13.39;100.00;102196.84;5005062;28;20589;-46
2023/06/24 03:15:31;;;;;;;10.90;7.53;;;;;;;13.42;100.00;102201.25;5008587;28;20222;-49
2023/06/24 03:17:57;;;;;;;10.23;7.88;;;;;;;13.50;100.00;102195.66;5013496;28;20268;-44
2023/06/24 03:20:24;;;;;;;7.90;7.10;;;;;;;13.51;100.00;102198.31;5012641;28;21107;-45
2023/06/24 03:22:52;;;;;;;10.70;7.15;;;;;;;13.54;100.00;102209.00;5013909;28;20210;-46
2023/06/24 03:25:18;;;;;;;7.78;7.07;;;;;;;13.55;100.00;102208.06;5007593;28;20231;-47
2023/06/24 03:27:44;;;;;;;9.00;7.10;;;;;;;13.44;100.00;102206.59;5009869;28;20184;-45
2023/06/24 03:30:14;;;;;;;8.23;7.32;;;;;;;13.47;100.00;102209.19;5014038;28;20184;-46
2023/06/24 03:32:40;;;;;;;10.50;7.93;;;;;;;13.48;100.00;102206.47;5027408;28;20199;-46
2023/06/24 03:35:07;;;;;;;7.32;6.68;;;;;;;13.59;100.00;102203.47;5013009;28;20214;-46
2023/06/24 03:37:32;;;;;;;8.30;6.95;;;;;;;13.59;100.00;102203.47;5011412;28;20199;-47
2023/06/24 03:39:58;;;;;;;9.40;8.38;;;;;;;13.54;100.00;102209.00;5014507;28;20181;-46
2023/06/24 03:42:24;;;;;;;8.30;7.50;;;;;;;13.49;100.00;102213.66;5008706;23;20344;-48
2023/06/24 03:44:49;;;;;;;8.68;7.43;;;;;;;13.48;100.00;102219.94;4970886;28;20206;-49
2023/06/24 03:47:15;;;;;;;9.55;8.50;;;;;;;13.46;100.00;102219.09;4969114;28;20209;-47
2023/06/24 03:49:41;;;;;;;8.63;7.78;;;;;;;13.57;100.00;102222.38;4969464;28;20558;-48
2023/06/24 03:52:08;;;;;;;10.52;9.45;;;;;;;13.53;100.00;102226.06;4968665;28;20573;-48
2023/06/24 03:54:34;;;;;;;11.15;9.65;;;;;;;13.48;100.00;102229.84;4968424;28;20644;-47
2023/06/24 03:57:00;;;;;;;9.85;8.60;;;;;;;13.64;100.00;102230.28;4970305;28;20187;-48
2023/06/24 03:59:25;;;;;;;12.77;10.05;;;;;;;13.59;100.00;102235.78;4970024;28;20217;-47
2023/06/24 04:01:54;;;;;;;10.73;9.38;;;;;;;13.63;100.00;102229.41;4956705;28;20193;-47
2023/06/24 04:04:20;;;;;;;13.63;10.02;;;;;;;13.65;100.00;102227.53;4956530;28;20644;-48
2023/06/24 04:06:45;;;;;;;14.68;9.35;;;;;;;13.76;100.00;102221.84;4968789;28;20177;-48
2023/06/24 04:09:13;;;;;;;13.60;9.15;;;;;;;13.82;100.00;102221.69;4985214;28;20236;-47
2023/06/24 04:11:38;;;;;;;10.85;8.57;;;;;;;13.79;100.00;102213.66;4970317;28;20214;-48
2023/06/24 04:14:06;;;;;;;10.00;8.48;;;;;;;13.87;100.00;102225.09;4984308;28;20197;-47
2023/06/24 04:16:33;;;;;;;11.07;8.32;;;;;;;13.90;100.00;102219.63;4968220;28;20189;-47
2023/06/24 04:19:01;;;;;;;8.90;8.00;;;;;;;13.99;100.00;102218.44;4969606;28;20189;-48
2023/06/24 04:21:27;;;;;;;10.00;8.68;;;;;;;13.96;100.00;102214.03;4963370;28;20317;-48
2023/06/24 04:23:53;;;;;;;10.10;9.07;;;;;;;14.02;100.00;102219.25;4973814;28;20289;-48
2023/06/24 04:26:19;;;;;;;10.07;8.75;;;;;;;14.03;100.00;102217.44;4968444;28;20670;-48
2023/06/24 04:28:44;;;;;;;9.88;8.27;;;;;;;14.07;100.00;102218.25;4969731;28;20257;-47
2023/06/24 04:31:10;;;;;;;10.85;8.77;;;;;;;14.04;100.00;102223.69;4968062;28;20434;-48
2023/06/24 04:33:37;;;;;;;12.90;9.23;;;;;;;14.05;100.00;102228.19;4969669;28;20351;-47
2023/06/24 04:36:04;;;;;;;13.32;8.77;;;;;;;14.17;100.00;102225.13;4968438;28;20277;-48
2023/06/24 04:38:30;;;;;;;11.18;8.45;;;;;;;14.27;100.00;102229.28;4967721;28;20770;-47
2023/06/24 04:40:59;;;;;;;10.20;7.47;;;;;;;14.36;100.00;102228.09;4967872;28;20202;-48
2023/06/24 04:43:25;;;;;;;10.13;7.38;;;;;;;14.47;100.00;102231.34;4968329;28;20217;-47
2023/06/24 04:45:51;;;;;;;11.85;7.57;;;;;;;14.49;100.00;102232.16;4969901;28;20186;-46
2023/06/24 04:48:16;;;;;;;10.73;7.63;;;;;;;14.54;100.00;102240.09;4969667;28;20635;-46
2023/06/24 04:50:42;;;;;;;10.73;7.20;;;;;;;14.59;100.00;102227.41;4969607;28;20174;-48
2023/06/24 04:53:08;;;;;;;9.13;6.95;;;;;;;14.65;100.00;102221.81;4969183;28;20642;-46
2023/06/24 04:55:33;;;;;;;9.43;7.60;;;;;;;14.65;100.00;102234.41;4969293;28;20190;-47
2023/06/24 04:57:58;;;;;;;9.82;7.80;;;;;;;14.65;100.00;102227.22;4969347;28;20212;-45
2023/06/24 05:00:24;;;;;;;10.90;7.45;;;;;;;14.65;100.00;102231.69;4967597;28;20186;-46
2023/06/24 05:02:50;;;;;;;11.93;7.43;;;;;;;14.71;100.00;102226.09;4968140;28;20249;-45
2023/06/24 05:05:16;;;;;;;8.50;6.97;;;;;;;14.88;100.00;102212.94;4969424;28;20558;-45
2023/06/24 05:07:41;;;;;;;8.70;7.25;;;;;;;14.88;100.00;102222.84;4967749;28;20194;-45
2023/06/24 05:10:07;;;;;;;13.43;7.43;;;;;;;14.92;100.00;102220.00;4966878;28;20166;-46
2023/06/24 05:12:33;;;;;;;8.95;6.88;;;;;;;14.90;100.00;102216.47;4968056;28;20294;-45
2023/06/24 05:14:58;;;;;;;9.00;6.82;;;;;;;15.04;100.00;102203.41;4968878;28;20193;-44
2023/06/24 05:17:24;;;;;;;7.05;6.35;;;;;;;15.37;100.00;102215.72;4969221;28;20281;-45
2023/06/24 05:19:49;;;;;;;13.50;7.15;;;;;;;15.48;100.00;102218.94;4969137;28;20473;-46
2023/06/24 05:22:15;;;;;;;9.85;6.72;;;;;;;15.68;100.00;102225.41;4967689;28;20186;-43
2023/06/24 05:24:41;;;;;;;9.20;6.65;;;;;;;15.80;100.00;102214.16;4968514;28;20332;-44
2023/06/24 05:27:07;;;;;;;9.27;6.70;;;;;;;15.72;100.00;102214.47;4966701;28;20186;-44
2023/06/24 05:29:33;;;;;;;7.70;6.05;;;;;;;15.71;100.00;102209.09;4965457;28;20171;-45
2023/06/24 05:31:59;;;;;;;9.68;5.68;;;;;;;15.66;100.00;102211.97;4969205;28;20200;-45
2023/06/24 05:34:25;;;;;;;6.70;5.93;;;;;;;15.81;100.00;102218.66;4965872;28;20213;-45
2023/06/24 05:36:50;;;;;;;9.48;6.18;;;;;;;15.70;100.00;102210.91;4968163;28;20550;-47
2023/06/24 05:39:17;;;;;;;7.57;6.30;;;;;;;15.82;100.00;102206.91;4967885;28;20186;-45
2023/06/24 05:41:43;;;;;;;7.43;6.55;;;;;;;15.87;100.00;102213.00;4967759;28;20174;-47
2023/06/24 05:44:12;;;;;;;7.47;6.78;;;;;;;15.74;100.00;102219.81;4968551;28;20260;-45
2023/06/24 05:46:37;;;;;;;9.57;6.40;;;;;;;15.87;100.00;102215.69;4965470;28;20196;-45
2023/06/24 05:49:03;;;;;;;9.18;5.70;;;;;;;16.02;100.00;102220.50;4968957;28;20186;-44
2023/06/24 05:51:29;;;;;;;8.90;5.97;;;;;;;15.97;100.00;102216.25;4967337;28;20228;-45
2023/06/24 05:53:55;;;;;;;8.23;6.13;;;;;;;16.09;100.00;102220.28;4966962;28;20205;-44
2023/06/24 05:56:22;;;;;;;9.95;6.00;;;;;;;15.98;100.00;102218.91;4966237;28;20218;-44
2023/06/24 05:58:48;;;;;;;10.13;6.40;;;;;;;15.90;100.00;102223.69;4966315;28;20183;-45
2023/06/24 06:01:14;;;;;;;7.80;5.65;;;;;;;16.03;100.00;102227.69;4968375;28;20224;-45
2023/06/24 06:03:40;;;;;;;7.70;6.30;;;;;;;15.96;100.00;102227.97;4968087;28;20675;-44
2023/06/24 06:06:06;;;;;;;11.35;5.82;;;;;;;16.01;100.00;102232.28;4966887;28;20182;-45
2023/06/24 06:08:33;;;;;;;9.73;6.47;;;;;;;16.11;100.00;102235.50;4966090;28;20260;-46
2023/06/24 06:10:58;;;;;;;9.50;5.57;;;;;;;16.28;100.00;102232.13;4963601;28;20188;-46
2023/06/24 06:13:24;;;;;;;8.02;5.50;;;;;;;16.40;100.00;102245.19;4967663;28;20747;-44
2023/06/24 06:15:49;;;;;;;8.48;5.10;;;;;;;16.52;100.00;102241.09;4968619;28;20261;-46
2023/06/24 06:18:15;;;;;;;7.20;5.15;;;;;;;16.69;100.00;102240.41;4969143;28;20189;-44
2023/06/24 06:20:41;;;;;;;6.65;5.22;;;;;;;16.83;100.00;102229.03;4958286;28;20182;-45
2023/06/24 06:23:07;;;;;;;8.68;5.50;;;;;;;16.93;100.00;102234.94;4967113;28;20221;-45
2023/06/24 06:25:33;;;;;;;8.38;5.05;;;;;;;16.61;100.00;102234.41;4962833;28;20194;-44
2023/06/24 06:27:58;;;;;;;5.75;5.15;;;;;;;17.05;100.00;102234.41;4966553;28;20170;-46
2023/06/24 06:30:24;;;;;;;5.65;4.95;;;;;;;17.07;98.43;102221.69;4964348;28;20188;-45
2023/06/24 06:32:49;;;;;;;8.98;5.18;;;;;;;17.14;97.39;102225.88;4966205;28;20284;-46
2023/06/24 06:35:15;;;;;;;6.03;4.70;;;;;;;17.27;96.82;102216.28;4965620;28;20178;-43
2023/06/24 06:37:40;;;;;;;10.18;5.00;;;;;;;17.41;96.03;102231.06;4965501;28;20178;-46
2023/06/24 06:40:07;;;;;;;6.85;5.05;;;;;;;17.28;95.15;102223.44;4968530;28;20178;-44
2023/06/24 06:42:32;;;;;;;11.80;5.13;;;;;;;17.39;94.88;102224.81;4966960;28;20193;-45
2023/06/24 06:44:58;;;;;;;14.07;5.03;;;;;;;17.24;93.78;102220.94;4966943;28;20678;-45
2023/06/24 06:47:23;;;;;;;10.73;5.40;;;;;;;17.25;93.59;102222.69;4965552;28;20221;-42
2023/06/24 06:49:49;;;;;;;12.48;10.07;;;;;;;17.59;93.48;102223.91;4965659;28;20245;-43
2023/06/24 06:52:14;;;;;;;9.63;8.63;;;;;;;18.06;92.13;102224.47;4964818;28;20193;-44
2023/06/24 06:54:39;;;;;;;12.25;8.85;;;;;;;18.25;90.22;102218.13;4966217;28;20209;-45
2023/06/24 06:57:05;;;;;;;8.43;6.00;;;;;;;18.52;88.43;102219.50;4966158;28;20171;-43
2023/06/24 06:59:32;;;;;;;9.18;5.20;;;;;;;18.22;87.39;102208.31;4966933;28;20327;-44
2023/06/24 07:01:57;;;;;;;7.97;4.60;;;;;;;18.72;87.11;102207.66;4965967;28;20563;-45
2023/06/24 07:04:23;;;;;;;8.65;4.90;;;;;;;18.78;86.34;102205.59;4965799;28;20213;-44
2023/06/24 07:06:49;;;;;;;7.07;4.85;;;;;;;18.73;84.91;102195.81;4964616;28;20345;-46
2023/06/24 07:09:16;;;;;;;6.78;4.85;;;;;;;18.78;84.64;102201.03;4966707;28;20182;-46
2023/06/24 07:11:42;;;;;;;6.45;4.63;;;;;;;18.94;84.06;102188.44;4980281;28;20677;-45
2023/06/24 07:14:07;;;;;;;7.85;4.82;;;;;;;18.69;83.91;102207.81;4982089;28;20202;-44
2023/06/24 07:16:33;;;;;;;6.30;4.70;;;;;;;18.60;84.54;102212.81;4966074;28;20185;-47
2023/06/24 07:18:58;;;;;;;6.95;3.97;;;;;;;18.56;85.34;102208.50;4965452;28;20174;-44
2023/06/24 07:21:24;;;;;;;6.15;4.38;;;;;;;18.96;85.11;102215.53;4968698;28;20186;-45
2023/06/24 07:23:50;;;;;;;5.35;4.15;;;;;;;19.04;82.79;102210.56;4971445;28;20674;-44
2023/06/24 07:26:15;;;;;;;6.65;4.55;;;;;;;19.00;82.40;102210.81;4970853;28;20197;-43
2023/06/24 07:28:41;;;;;;;9.98;4.45;;;;;;;19.36;81.20;102205.28;4971373;28;20197;-46
2023/06/24 07:31:06;;;;;;;6.90;4.53;;;;;;;19.94;79.94;102206.69;4970149;28;20202;-44
2023/06/24 07:33:32;;;;;;;5.97;4.20;;;;;;;19.34;76.64;102188.19;4965782;28;20730;-46
2023/06/24 07:35:58;;;;;;;5.15;3.85;;;;;;;19.51;76.07;102192.72;4971365;28;20189;-45
2023/06/24 07:38:23;;;;;;;6.13;3.90;;;;;;;19.15;77.05;102191.00;4969497;28;20190;-47
2023/06/24 07:40:49;;;;;;;4.30;3.80;;;;;;;19.09;77.33;102202.22;4970213;28;20185;-48
2023/06/24 07:43:14;;;;;;;8.63;4.00;;;;;;;19.37;76.41;102200.72;4970346;28;20209;-47
2023/06/24 07:45:40;;;;;;;6.88;3.83;;;;;;;19.75;75.69;102196.84;4970526;28;20173;-46
2023/06/24 07:48:07;;;;;;;5.97;4.10;;;;;;;19.93;75.37;102191.34;4970378;28;20166;-47
2023/06/24 07:50:36;;;;;;;5.85;4.47;;;;;;;19.94;74.33;102193.09;4967101;28;20186;-47
2023/06/24 07:53:02;;;;;;;5.28;3.80;;;;;;;19.83;73.96;102176.50;4970003;28;20202;-48
2023/06/24 07:55:28;;;;;;;6.72;3.90;;;;;;;20.00;73.63;102176.44;4969567;28;20810;-48
2023/06/24 07:57:53;;;;;;;3.92;3.00;;;;;;;20.22;72.41;102178.81;4968096;28;20182;-48
2023/06/24 08:00:19;;;;;;;6.55;3.40;;;;;;;20.21;72.60;102176.19;4970564;28;20268;-47
2023/06/24 08:02:44;;;;;;;4.70;3.20;;;;;;;20.62;72.08;102178.34;4969784;28;20281;-47
2023/06/24 08:05:10;;;;;;;3.78;3.13;;;;;;;20.74;70.23;102164.88;4969985;28;20184;-47
2023/06/24 08:07:37;;;;;;;5.60;3.53;;;;;;;20.86;67.33;102146.94;4969620;28;20180;-49
2023/06/24 08:10:02;;;;;;;5.43;3.28;;;;;;;21.10;66.53;102152.75;4969685;28;20186;-47
2023/06/24 08:12:28;;;;;;;4.93;3.17;;;;;;;21.62;65.83;102147.75;4969427;28;20214;-49
2023/06/24 08:14:54;;;;;;;5.03;3.50;;;;;;;20.86;65.94;102146.03;4968526;28;20217;-48
2023/06/24 08:17:19;;;;;;;4.57;3.00;;;;;;;21.26;66.70;102162.69;4969962;28;20252;-47
2023/06/24 08:19:45;;;;;;;6.25;3.20;;;;;;;21.07;65.64;102152.03;4970041;28;20193;-47
2023/06/24 08:22:10;;;;;;;7.10;3.42;;;;;;;21.05;65.95;102156.72;4969686;28;20229;-48
2023/06/24 08:24:36;;;;;;;5.07;3.20;;;;;;;21.54;66.17;102170.06;4969412;28;20268;-48
2023/06/24 08:30:20;;;;;;;6.55;3.63;;;;;;;;;;4969660;28;20177;-50
2023/06/24 08:32:45;;;;;;;5.82;3.20;;;;;;;20.69;66.97;102174.31;4967606;28;20210;-48
2023/06/24 08:35:11;;;;;;;3.97;2.92;;;;;;;21.31;66.60;102172.31;4969880;28;20173;-46
2023/06/24 08:37:37;;;;;;;4.65;3.35;;;;;;;21.35;66.24;102173.03;4968953;28;20656;-47
2023/06/24 08:40:04;;;;;;;7.10;3.40;;;;;;;21.37;65.21;102166.50;4968750;28;20170;-46
2023/06/24 08:42:30;;;;;;;3.80;2.80;;;;;;;21.67;64.18;102161.94;4969223;28;20291;-46
2023/06/24 08:44:56;;;;;;;4.50;3.47;;;;;;;21.86;62.77;102167.09;4970041;28;20242;-47
2023/06/24 08:47:24;;;;;;;5.53;3.38;;;;;;;21.46;64.23;102169.66;4969802;28;20173;-46
2023/06/24 08:49:55;;;;;;;7.00;3.30;;;;;;;21.65;63.81;102163.94;4969069;28;20185;-46
2023/06/24 08:52:26;;;;;;;5.07;3.38;;;;;;;22.27;63.12;102158.97;4968771;28;20198;-48
2023/06/24 08:54:55;;;;;;;4.88;3.15;;;;;;;22.64;62.08;102159.22;4968657;28;20312;-47
2023/06/24 08:57:21;;;;;;;4.47;3.08;;;;;;;22.93;60.12;102139.94;4965227;28;20193;-46
2023/06/24 08:59:46;;;;;;;5.50;3.30;;;;;;;22.20;61.02;102154.88;4969562;28;20221;-46
2023/06/24 09:02:13;;;;;;;5.75;2.88;;;;;;;22.35;61.39;102153.00;4968599;28;20173;-48
2023/06/24 09:04:40;;;;;;;5.85;2.80;;;;;;;22.54;59.29;102133.50;4966261;28;20201;-46
2023/06/24 09:07:06;;;;;;;4.15;2.70;;;;;;;22.34;58.12;102129.38;4968886;28;20180;-47
2023/06/24 09:09:31;;;;;;;3.58;2.70;;;;;;;22.34;58.08;102121.19;4968207;28;20185;-48
2023/06/24 09:11:59;;;;;;;2.97;2.67;;;;;;;22.24;58.35;102129.16;4968731;28;20193;-47
2023/06/24 09:14:25;;;;;;;5.97;2.85;;;;;;;22.18;58.71;102124.94;4968425;28;20213;-48
2023/06/24 09:17:01;;;;;;;4.78;2.63;;;;;;;22.80;57.97;102126.25;4967562;28;20197;-50
2023/06/24 09:19:32;;;;;;;4.57;3.03;;;;;;;23.27;57.87;102137.59;4966789;28;20181;-46
2023/06/24 09:22:06;;;;;;;3.33;2.92;;;;;;;23.44;56.00;102119.00;4966529;28;20195;-46
2023/06/24 09:24:33;;;;;;;3.80;2.78;;;;;;;23.28;55.19;102090.13;4966952;28;20580;-46
2023/06/24 09:26:59;;;;;;;3.30;2.70;;;;;;;22.98;54.97;102094.91;4967083;28;20256;-46
2023/06/24 09:29:29;;;;;;;3.53;2.92;;;;;;;22.79;57.05;102100.78;4964787;28;20706;-49
2023/06/24 09:31:59;;;;;;;5.93;3.20;;;;;;;22.36;57.89;102117.38;4968283;28;20241;-44
2023/06/24 09:34:26;;;;;;;6.28;2.92;;;;;;;23.36;57.38;102115.06;4966688;28;20227;-48
2023/06/24 09:36:53;;;;;;;5.63;3.22;;;;;;;23.07;56.23;102098.88;4968388;28;20484;-47
2023/06/24 09:39:28;;;;;;;4.03;2.90;;;;;;;23.53;55.17;102081.03;4967069;28;20189;-45
2023/06/24 09:41:57;;;;;;;6.35;3.10;;;;;;;23.04;55.50;102074.47;4968204;28;20165;-46
2023/06/24 09:44:23;;;;;;;5.05;3.17;;;;;;;23.94;54.55;102079.81;4967515;28;20304;-47
2023/06/24 09:46:49;;;;;;;7.28;3.83;;;;;;;22.76;55.03;102065.50;4966841;28;20243;-47
2023/06/24 09:49:14;;;;;;;4.53;3.72;;;;;;;23.62;55.55;102085.81;4968573;28;20193;-47
2023/06/24 09:51:45;;;;;;;6.78;4.28;;;;;;;23.84;54.25;102074.19;4967379;28;20706;-47
2023/06/24 09:54:13;;;;;;;4.07;3.47;;;;;;;23.63;54.38;102073.88;4968334;28;20553;-47
2023/06/24 09:56:47;;;;;;;3.15;2.85;;;;;;;23.81;54.89;102083.50;4967916;28;20248;-47
2023/06/24 09:59:14;;;;;;;5.22;3.63;;;;;;;24.04;54.90;102075.41;4965907;28;20318;-45
2023/06/24 10:01:43;;;;;;;4.80;3.22;;;;;;;23.85;56.18;102095.97;4968062;28;20166;-45
2023/06/24 10:04:15;;;;;;;4.43;2.72;;;;;;;22.76;56.54;102092.81;4967933;28;20233;-45
2023/06/24 10:06:40;;;;;;;5.57;3.65;;;;;;;22.75;56.78;102095.63;4967770;28;20190;-48
2023/06/24 10:09:06;;;;;;;5.35;3.28;;;;;;;22.80;57.30;102098.91;4966570;28;20197;-49
2023/06/24 10:11:32;;;;;;;4.22;2.95;;;;;;;23.08;56.87;102102.47;4980214;28;20193;-48
2023/06/24 10:13:57;;;;;;;4.68;3.50;;;;;;;22.57;58.42;102098.66;4967399;28;20252;-48
2023/06/24 10:16:23;;;;;;;5.55;3.40;;;;;;;21.85;59.78;102116.25;4968015;28;20189;-46
2023/06/24 10:18:49;;;;;;;5.88;3.40;;;;;;;22.28;60.51;102117.03;4968477;28;20178;-49
2023/06/24 10:21:15;;;;;;;5.03;3.40;;;;;;;22.39;59.77;102100.81;4966420;28;20259;-48
2023/06/24 10:23:53;;;;;;;5.70;3.20;;;;;;;23.09;58.63;102085.97;4967820;28;20197;-46
2023/06/24 10:26:24;;;;;;;3.25;2.95;;;;;;;23.47;58.44;102081.47;4967298;28;20284;-46
2023/06/24 10:29:05;;;;;;;3.63;2.80;;;;;;;23.31;58.43;102077.09;4967820;28;20264;-49
2023/06/24 10:31:40;;;;;;;5.10;3.47;;;;;;;23.04;59.25;102080.81;4960983;28;20197;-48
2023/06/24 10:34:31;;;;;;;3.58;2.95;;;;;;;23.80;58.35;102083.59;4963753;28;20209;-47
2023/06/24 10:36:59;;;;;;;3.25;2.75;;;;;;;24.01;57.54;102079.25;4964252;28;20296;-48
2023/06/24 10:39:50;;;;;;;4.55;3.60;;;;;;;23.51;58.59;102085.72;4965245;28;20231;-47
2023/06/24 10:42:24;;;;;;;5.13;3.50;;;;;;;23.84;57.51;102077.78;4963426;28;20220;-47
2023/06/24 10:44:51;;;;;;;3.88;3.05;;;;;;;23.96;58.28;102081.44;4966676;28;20287;-48
2023/06/24 10:47:17;;;;;;;5.43;3.50;;;;;;;23.22;58.55;102070.44;4964901;28;20201;-49
2023/06/24 10:49:43;;;;;;;4.22;2.80;;;;;;;23.72;57.64;102075.91;4967390;28;20546;-47
2023/06/24 10:52:10;;;;;;;6.28;3.70;;;;;;;23.92;58.58;102087.28;4967828;28;20197;-48
2023/06/24 10:54:37;;;;;;;7.63;3.60;;;;;;;24.10;57.25;102068.59;4957899;28;20208;-49
2023/06/24 10:57:12;;;;;;;5.05;3.08;;;;;;;23.92;57.38;102068.09;4968114;28;20181;-48
2023/06/24 10:59:48;;;;;;;4.30;3.25;;;;;;;24.02;57.31;102056.34;4968833;28;20523;-48
2023/06/24 11:02:14;;;;;;;3.75;3.28;;;;;;;25.04;55.71;102052.09;4971047;28;20165;-45
2023/06/24 11:04:50;;;;;;;6.07;3.40;;;;;;;24.94;55.82;102042.84;4970310;28;20289;-48
2023/06/24 11:07:18;;;;;;;7.38;3.60;;;;;;;24.52;56.80;102042.53;4968973;28;20173;-45
2023/06/24 11:09:53;;;;;;;4.65;3.10;;;;;;;24.66;55.96;102030.47;4970224;28;20316;-47
2023/06/24 11:12:23;;;;;;;4.15;3.33;;;;;;;24.97;54.70;102017.97;4969350;28;20519;-47
2023/06/24 11:14:48;;;;;;;4.55;2.97;;;;;;;25.38;53.35;102018.34;4966607;28;20206;-47
2023/06/24 11:17:14;;;;;;;3.75;3.38;;;;;;;25.39;52.75;102010.00;4967951;28;20619;-48
2023/06/24 11:19:40;;;;;;;4.30;3.22;;;;;;;25.57;52.57;102001.22;4971236;28;20248;-46
2023/06/24 11:22:07;;;;;;;8.57;3.40;;;;;;;25.09;53.02;101997.75;4970922;28;20182;-47
2023/06/24 11:24:33;;;;;;;4.20;3.50;;;;;;;25.14;53.13;102005.59;4970636;28;20193;-48